Time;durP1;ratioP1;P1;durP2;ratioP2;P2;SDS_P1;SDS_P2;PMS_P1;PMS_P2;Temp;Humidity;BMP_temperature;BMP_pressure;BME280_temperature;BME280_humidity;BME280_pressure;Samples;Min_cycle;Max_cycle;Signal;HPM_P1;HPM_P2
2021/08/06 00:00:36;;;;;;;15.50;9.70;;;16.20;99.90;;;;;;5031117;28;20271;-74
2021/08/06 00:03:02;;;;;;;13.80;9.77;;;16.30;99.90;;;;;;5031352;28;20061;-74
2021/08/06 00:05:28;;;;;;;17.73;11.32;;;16.20;99.90;;;;;;5031096;28;20039;-74
2021/08/06 00:07:54;;;;;;;16.02;10.73;;;16.20;99.90;;;;;;5031206;28;20033;-74
2021/08/06 00:10:19;;;;;;;13.57;10.05;;;16.20;99.90;;;;;;5031186;28;20091;-74
2021/08/06 00:12:45;;;;;;;14.85;9.77;;;16.20;99.90;;;;;;5030801;28;20041;-74
2021/08/06 00:15:10;;;;;;;16.17;9.70;;;16.10;99.90;;;;;;5031292;28;20029;-75
2021/08/06 00:17:36;;;;;;;11.80;9.63;;;16.20;99.90;;;;;;5030978;28;20658;-72
2021/08/06 00:20:05;;;;;;;18.13;9.75;;;16.10;99.90;;;;;;5030934;28;20038;-74
2021/08/06 00:22:31;;;;;;;10.65;8.95;;;16.10;99.90;;;;;;5029618;28;20058;-70
2021/08/06 00:24:56;;;;;;;14.35;10.27;;;16.10;99.90;;;;;;5030709;28;20384;-73
2021/08/06 00:27:22;;;;;;;13.43;10.07;;;16.10;99.90;;;;;;5030766;28;20055;-73
2021/08/06 00:29:47;;;;;;;15.30;10.32;;;16.00;99.90;;;;;;5031036;28;20471;-74
2021/08/06 00:32:13;;;;;;;14.82;10.07;;;16.00;99.90;;;;;;5030649;28;20167;-74
2021/08/06 00:34:39;;;;;;;14.85;10.23;;;16.10;99.90;;;;;;5030884;28;20086;-74
2021/08/06 00:37:04;;;;;;;15.23;10.55;;;16.00;99.90;;;;;;5030814;28;20030;-74
2021/08/06 00:39:30;;;;;;;14.93;10.30;;;16.10;99.90;;;;;;5030911;28;20026;-73
2021/08/06 00:41:55;;;;;;;15.50;9.77;;;16.00;99.90;;;;;;5031188;28;20022;-74
2021/08/06 00:44:21;;;;;;;13.60;10.38;;;16.00;99.90;;;;;;5031094;28;20038;-75
2021/08/06 00:46:46;;;;;;;14.57;10.20;;;16.00;99.90;;;;;;5030606;28;20443;-75
2021/08/06 00:49:12;;;;;;;14.80;9.57;;;15.90;99.90;;;;;;5030727;28;20091;-73
2021/08/06 00:51:38;;;;;;;14.40;9.35;;;15.90;99.90;;;;;;5030576;28;20033;-73
2021/08/06 00:54:04;;;;;;;11.88;9.25;;;15.90;99.90;;;;;;5031168;28;20104;-73
2021/08/06 00:56:30;;;;;;;12.73;8.45;;;15.90;99.90;;;;;;5030651;28;20382;-74
2021/08/06 00:58:56;;;;;;;14.27;9.43;;;16.00;99.90;;;;;;5030487;28;20190;-74
2021/08/06 01:01:24;;;;;;;13.10;9.25;;;15.90;99.90;;;;;;5030311;28;20038;-74
2021/08/06 01:03:55;;;;;;;13.15;9.95;;;15.90;99.90;;;;;;5030400;28;20622;-74
2021/08/06 01:06:41;;;;;;;13.98;9.55;;;16.00;99.90;;;;;;5030558;28;20025;-74
2021/08/06 01:09:07;;;;;;;15.13;9.80;;;15.90;99.90;;;;;;5030796;28;20048;-74
2021/08/06 01:11:35;;;;;;;13.18;9.43;;;15.90;99.90;;;;;;5030705;28;20460;-74
2021/08/06 01:14:06;;;;;;;17.42;9.82;;;15.90;99.90;;;;;;5030330;28;20468;-74
2021/08/06 01:16:33;;;;;;;16.50;9.85;;;15.90;99.90;;;;;;5033845;28;20046;-74
2021/08/06 01:19:23;;;;;;;14.30;9.77;;;15.90;99.90;;;;;;5034182;28;20029;-73
2021/08/06 01:21:58;;;;;;;13.95;10.10;;;15.90;99.90;;;;;;5033836;28;20030;-74
2021/08/06 01:24:25;;;;;;;11.23;9.48;;;15.80;99.90;;;;;;5033773;28;20402;-73
2021/08/06 01:26:50;;;;;;;13.73;9.45;;;15.80;99.90;;;;;;5034455;28;20071;-73
2021/08/06 01:29:16;;;;;;;13.65;9.52;;;15.80;99.90;;;;;;5033833;28;20037;-73
2021/08/06 01:31:42;;;;;;;11.85;9.40;;;15.90;99.90;;;;;;5033742;28;20041;-74
2021/08/06 01:34:08;;;;;;;12.18;9.48;;;15.80;99.90;;;;;;5033758;28;20041;-74
2021/08/06 01:36:34;;;;;;;12.75;9.93;;;15.80;99.90;;;;;;5048439;28;20035;-73
2021/08/06 01:39:00;;;;;;;12.88;9.85;;;15.80;99.90;;;;;;5053898;28;20375;-73
2021/08/06 01:41:37;;;;;;;12.77;9.55;;;15.80;99.90;;;;;;5053745;28;20427;-73
2021/08/06 01:44:18;;;;;;;10.57;8.02;;;15.80;99.90;;;;;;5053350;28;20056;-73
2021/08/06 01:47:02;;;;;;;12.05;9.55;;;15.80;99.90;;;;;;5053245;28;20043;-74
2021/08/06 01:49:33;;;;;;;11.88;9.45;;;15.80;99.90;;;;;;5053600;28;20045;-73
2021/08/06 01:52:04;;;;;;;12.23;9.38;;;15.80;99.90;;;;;;5053216;28;20468;-73
2021/08/06 01:54:32;;;;;;;11.60;9.80;;;15.80;99.90;;;;;;5053329;28;20215;-73
2021/08/06 01:56:59;;;;;;;14.48;9.65;;;15.80;99.90;;;;;;5053339;28;20039;-74
2021/08/06 01:59:26;;;;;;;13.25;9.52;;;15.80;99.90;;;;;;5053137;28;20037;-73
2021/08/06 02:01:53;;;;;;;12.88;9.75;;;15.80;99.90;;;;;;5051917;28;20378;-73
2021/08/06 02:04:19;;;;;;;17.23;9.02;;;15.80;99.90;;;;;;5053200;28;20150;-73
2021/08/06 02:06:44;;;;;;;14.00;9.30;;;15.80;99.90;;;;;;5053199;28;20762;-73
2021/08/06 02:09:17;;;;;;;13.35;9.77;;;15.80;99.90;;;;;;5053472;28;20469;-73
2021/08/06 02:11:43;;;;;;;12.75;9.32;;;15.80;99.90;;;;;;5052790;28;20029;-73
2021/08/06 02:14:14;;;;;;;13.80;9.57;;;15.80;99.90;;;;;;5052958;28;20029;-73
2021/08/06 02:16:42;;;;;;;12.48;10.07;;;15.80;99.90;;;;;;5052824;28;20494;-72
2021/08/06 02:19:11;;;;;;;11.27;9.27;;;15.70;99.90;;;;;;5052956;28;20033;-73
2021/08/06 02:21:39;;;;;;;12.02;9.35;;;15.80;99.90;;;;;;5051976;28;20029;-73
2021/08/06 02:24:12;;;;;;;13.13;9.73;;;15.70;99.90;;;;;;5053296;28;20028;-73
2021/08/06 02:26:41;;;;;;;11.85;9.68;;;15.80;99.90;;;;;;5051593;28;20459;-73
2021/08/06 02:29:13;;;;;;;12.25;9.93;;;15.70;99.90;;;;;;5052616;28;20036;-74
2021/08/06 02:31:40;;;;;;;17.15;10.02;;;15.80;99.90;;;;;;5052677;28;20033;-74
2021/08/06 02:34:07;;;;;;;11.88;8.73;;;15.70;99.90;;;;;;5053482;28;20053;-73
2021/08/06 02:36:33;;;;;;;14.30;9.98;;;15.80;99.90;;;;;;5053289;28;20068;-73
2021/08/06 02:39:00;;;;;;;14.38;9.77;;;15.80;99.90;;;;;;5052816;28;20017;-74
2021/08/06 02:41:27;;;;;;;14.23;11.23;;;15.70;99.90;;;;;;5052335;28;20033;-75
2021/08/06 02:43:53;;;;;;;17.50;10.70;;;15.80;99.90;;;;;;5051397;28;20048;-75
2021/08/06 02:46:19;;;;;;;13.98;11.10;;;15.70;99.90;;;;;;5052243;28;20032;-73
2021/08/06 02:48:45;;;;;;;15.27;11.20;;;15.70;99.90;;;;;;5052104;28;20041;-73
2021/08/06 02:51:10;;;;;;;15.98;11.23;;;15.70;99.90;;;;;;5052556;28;20471;-72
2021/08/06 02:53:36;;;;;;;13.65;11.02;;;15.70;99.90;;;;;;5052545;28;20451;-74
2021/08/06 02:56:02;;;;;;;15.18;11.30;;;15.60;99.90;;;;;;5051000;28;20037;-73
2021/08/06 02:58:28;;;;;;;15.85;12.30;;;15.60;99.90;;;;;;5051997;28;20033;-74
2021/08/06 03:00:54;;;;;;;14.73;11.25;;;15.60;99.90;;;;;;5052036;28;20079;-74
2021/08/06 03:03:19;;;;;;;15.40;11.30;;;15.70;99.90;;;;;;5051740;28;20443;-74
2021/08/06 03:05:45;;;;;;;15.43;11.93;;;15.70;99.90;;;;;;5052266;28;20020;-73
2021/08/06 03:08:10;;;;;;;17.05;12.25;;;15.70;99.90;;;;;;5051902;28;20426;-73
2021/08/06 03:10:37;;;;;;;18.85;12.70;;;15.70;99.90;;;;;;5051965;28;20045;-73
2021/08/06 03:13:02;;;;;;;19.88;13.63;;;15.70;99.90;;;;;;5051528;28;20048;-73
2021/08/06 03:15:28;;;;;;;17.33;13.02;;;15.70;99.90;;;;;;5050677;28;20025;-74
2021/08/06 03:17:54;;;;;;;16.98;12.82;;;15.60;99.90;;;;;;5051767;28;20021;-74
2021/08/06 03:20:22;;;;;;;20.30;13.23;;;15.60;99.90;;;;;;5051738;28;20029;-75
2021/08/06 03:22:49;;;;;;;19.52;12.82;;;15.60;99.90;;;;;;5051397;28;20052;-73
2021/08/06 03:25:15;;;;;;;18.55;13.13;;;15.60;99.90;;;;;;5051554;28;20036;-74
2021/08/06 03:27:40;;;;;;;20.25;14.15;;;15.60;99.90;;;;;;5050688;28;20497;-74
2021/08/06 03:30:09;;;;;;;23.55;14.48;;;15.60;99.90;;;;;;5051836;28;20661;-74
2021/08/06 03:32:36;;;;;;;18.17;13.68;;;15.50;99.90;;;;;;5051109;28;20029;-74
2021/08/06 03:35:03;;;;;;;17.45;13.52;;;15.50;99.90;;;;;;5051173;28;20036;-72
2021/08/06 03:37:28;;;;;;;18.15;13.75;;;15.50;99.90;;;;;;5050515;28;20344;-73
2021/08/06 03:39:54;;;;;;;18.08;13.52;;;15.50;99.90;;;;;;5051138;28;20029;-73
2021/08/06 03:42:19;;;;;;;18.38;13.80;;;15.50;99.90;;;;;;5051279;28;20028;-75
2021/08/06 03:44:45;;;;;;;23.42;14.85;;;15.50;99.90;;;;;;5051667;28;20028;-73
2021/08/06 03:47:11;;;;;;;21.23;13.93;;;15.50;99.90;;;;;;5051172;28;20443;-74
2021/08/06 03:49:36;;;;;;;22.02;13.50;;;15.60;99.90;;;;;;5051077;28;20114;-74
2021/08/06 03:52:02;;;;;;;15.73;12.70;;;15.60;99.90;;;;;;5050010;28;20106;-73
2021/08/06 03:54:28;;;;;;;24.02;14.73;;;15.60;99.90;;;;;;5050932;28;20025;-74
2021/08/06 03:56:53;;;;;;;15.65;12.52;;;15.60;99.90;;;;;;5050317;28;20029;-74
2021/08/06 03:59:19;;;;;;;21.67;13.50;;;15.60;99.90;;;;;;5049875;28;20033;-73
2021/08/06 04:01:45;;;;;;;24.25;13.52;;;15.60;99.90;;;;;;5050771;28;20037;-73
2021/08/06 04:04:10;;;;;;;17.83;13.27;;;15.50;99.90;;;;;;5051059;28;20029;-73
2021/08/06 04:06:36;;;;;;;18.40;14.25;;;15.50;99.90;;;;;;5050996;28;20032;-73
2021/08/06 04:09:01;;;;;;;17.27;12.55;;;15.50;99.90;;;;;;5051319;28;20033;-74
2021/08/06 04:11:27;;;;;;;19.25;13.57;;;15.50;99.90;;;;;;5050599;28;20040;-75
2021/08/06 04:13:53;;;;;;;22.85;13.95;;;15.50;99.90;;;;;;5051007;28;20091;-73
2021/08/06 04:16:18;;;;;;;18.42;14.23;;;15.50;99.90;;;;;;5049710;28;20463;-73
2021/08/06 04:18:44;;;;;;;18.17;13.48;;;15.40;99.90;;;;;;5050647;28;20098;-73
2021/08/06 04:21:10;;;;;;;16.40;13.25;;;15.50;99.90;;;;;;5051223;28;20053;-74
2021/08/06 04:23:36;;;;;;;20.15;13.13;;;15.50;99.90;;;;;;5050505;28;20471;-74
2021/08/06 04:26:02;;;;;;;18.13;13.35;;;15.40;99.90;;;;;;5050757;28;20037;-74
2021/08/06 04:28:27;;;;;;;18.40;13.35;;;15.40;99.90;;;;;;5050618;28;20340;-74
2021/08/06 04:30:53;;;;;;;17.25;12.70;;;15.40;99.90;;;;;;5049657;28;20120;-74
2021/08/06 04:33:18;;;;;;;18.23;14.05;;;15.40;99.90;;;;;;5050764;28;20024;-74
2021/08/06 04:35:44;;;;;;;19.27;13.88;;;15.40;99.90;;;;;;5051139;28;20469;-74
2021/08/06 04:38:10;;;;;;;24.10;14.13;;;15.40;99.90;;;;;;5050762;28;20474;-72
2021/08/06 04:40:37;;;;;;;19.25;13.55;;;15.40;99.90;;;;;;5049576;28;20033;-73
2021/08/06 04:43:03;;;;;;;18.98;13.07;;;15.40;99.90;;;;;;5050713;28;20032;-74
2021/08/06 04:45:29;;;;;;;21.27;13.52;;;15.40;99.90;;;;;;5051207;28;20395;-74
2021/08/06 04:47:55;;;;;;;18.20;12.88;;;15.40;99.90;;;;;;5049912;28;20044;-72
2021/08/06 04:50:23;;;;;;;19.15;13.70;;;15.40;99.90;;;;;;5052362;28;20025;-73
2021/08/06 04:52:48;;;;;;;24.38;14.43;;;15.40;99.90;;;;;;5054368;28;20044;-73
2021/08/06 04:55:14;;;;;;;19.90;13.23;;;15.40;99.90;;;;;;5052995;28;20041;-74
2021/08/06 04:57:40;;;;;;;19.60;12.35;;;15.40;99.90;;;;;;5054135;28;20044;-74
2021/08/06 05:00:08;;;;;;;17.98;13.00;;;15.40;99.90;;;;;;5054650;28;20035;-73
2021/08/06 05:02:33;;;;;;;19.88;12.15;;;15.40;99.90;;;;;;5053993;28;20086;-75
2021/08/06 05:05:01;;;;;;;16.98;12.90;;;15.40;99.90;;;;;;5053998;28;20021;-74
2021/08/06 05:07:27;;;;;;;16.88;12.90;;;15.40;99.90;;;;;;5054289;28;20040;-73
2021/08/06 05:09:52;;;;;;;17.05;12.05;;;15.40;99.90;;;;;;5054039;28;20033;-74
2021/08/06 05:12:18;;;;;;;18.73;12.65;;;15.40;99.90;;;;;;5053819;28;20096;-74
2021/08/06 05:14:44;;;;;;;19.40;12.07;;;15.50;99.90;;;;;;5054529;28;20043;-74
2021/08/06 05:17:09;;;;;;;16.23;12.52;;;15.50;99.90;;;;;;5053857;28;20029;-74
2021/08/06 05:19:36;;;;;;;17.02;12.95;;;15.50;99.90;;;;;;5053782;28;20062;-73
2021/08/06 05:22:02;;;;;;;21.65;12.50;;;15.60;99.90;;;;;;5053699;28;20111;-73
2021/08/06 05:24:28;;;;;;;21.10;13.13;;;15.50;99.90;;;;;;5053910;28;20031;-73
2021/08/06 05:26:54;;;;;;;20.63;13.32;;;15.60;99.90;;;;;;5054070;28;20025;-74
2021/08/06 05:29:19;;;;;;;17.40;11.95;;;15.60;99.90;;;;;;5053541;28;20029;-73
2021/08/06 05:31:45;;;;;;;17.15;12.18;;;15.60;99.90;;;;;;5053416;28;20037;-73
2021/08/06 05:34:11;;;;;;;20.75;11.65;;;15.60;99.90;;;;;;5053447;28;20025;-73
2021/08/06 05:36:36;;;;;;;20.80;13.43;;;15.70;99.90;;;;;;5053433;28;20029;-74
2021/08/06 05:39:02;;;;;;;18.88;12.10;;;15.70;99.90;;;;;;5053822;28;20119;-74
2021/08/06 05:41:28;;;;;;;16.63;12.30;;;15.80;99.90;;;;;;5053168;28;20071;-74
2021/08/06 05:43:54;;;;;;;17.55;11.88;;;15.80;99.90;;;;;;5053312;28;20049;-74
2021/08/06 05:46:19;;;;;;;13.90;10.88;;;15.90;99.90;;;;;;5052917;28;20033;-74
2021/08/06 05:48:45;;;;;;;13.88;10.23;;;15.90;99.90;;;;;;5053048;28;20048;-73
2021/08/06 05:51:10;;;;;;;13.63;9.65;;;15.90;99.90;;;;;;5053530;28;20163;-74
2021/08/06 05:53:36;;;;;;;15.25;11.32;;;16.00;99.90;;;;;;5053259;28;20056;-73
2021/08/06 05:56:02;;;;;;;13.57;10.02;;;16.00;99.90;;;;;;5052974;28;20033;-73
2021/08/06 05:58:27;;;;;;;13.73;9.85;;;16.00;99.90;;;;;;5052776;28;20040;-74
2021/08/06 06:00:53;;;;;;;15.80;10.77;;;16.10;99.90;;;;;;5052578;28;20451;-73
2021/08/06 06:03:19;;;;;;;15.90;10.32;;;16.10;99.90;;;;;;5052682;28;20040;-73
2021/08/06 06:05:45;;;;;;;15.25;11.00;;;16.20;99.90;;;;;;5053192;28;20035;-74
2021/08/06 06:08:11;;;;;;;14.27;9.55;;;16.20;99.90;;;;;;5052852;28;20036;-73
2021/08/06 06:10:37;;;;;;;17.63;10.57;;;16.30;99.90;;;;;;5052604;28;20037;-74
2021/08/06 06:13:03;;;;;;;13.50;10.57;;;16.30;99.90;;;;;;5052856;28;20045;-73
2021/08/06 06:15:29;;;;;;;15.27;11.07;;;16.40;99.90;;;;;;5052513;28;20083;-72
2021/08/06 06:17:56;;;;;;;13.45;9.65;;;16.50;99.90;;;;;;5052855;28;20025;-73
2021/08/06 06:20:22;;;;;;;15.68;11.75;;;16.50;99.90;;;;;;5052705;28;20033;-74
2021/08/06 06:22:48;;;;;;;19.30;12.40;;;16.60;99.90;;;;;;5050663;28;20598;-74
2021/08/06 06:25:13;;;;;;;16.90;10.75;;;16.60;99.90;;;;;;5052585;28;20115;-73
2021/08/06 06:27:54;;;;;;;13.80;9.80;;;16.70;99.90;;;;;;5052552;28;20053;-71
2021/08/06 06:30:22;;;;;;;13.23;9.95;;;16.80;99.90;;;;;;5052275;28;20024;-73
2021/08/06 06:32:48;;;;;;;;;;;16.80;99.90;;;;;;5053155;28;20089;-74
2021/08/06 06:35:13;;;;;;;12.23;9.18;;;16.90;99.90;;;;;;5050978;28;20251;-74
2021/08/06 06:37:39;;;;;;;13.43;7.85;;;17.00;99.90;;;;;;5052102;28;20021;-74
2021/08/06 06:40:05;;;;;;;18.88;11.05;;;17.10;99.90;;;;;;5052104;28;20077;-73
2021/08/06 06:42:31;;;;;;;10.73;7.75;;;17.10;99.90;;;;;;5051873;28;20121;-74
2021/08/06 06:44:57;;;;;;;9.85;8.40;;;17.30;99.90;;;;;;5052518;28;20340;-74
2021/08/06 06:47:22;;;;;;;10.05;7.90;;;17.30;99.90;;;;;;5052020;28;20637;-74
2021/08/06 06:49:48;;;;;;;10.40;7.90;;;17.40;99.90;;;;;;5051973;28;20404;-74
2021/08/06 06:52:13;;;;;;;9.40;6.68;;;17.50;99.90;;;;;;5052030;28;20097;-75
2021/08/06 06:54:39;;;;;;;10.00;7.43;;;17.60;99.90;;;;;;5051678;28;20123;-75
2021/08/06 06:57:05;;;;;;;12.35;7.28;;;17.70;99.90;;;;;;5052379;28;20043;-75
2021/08/06 06:59:30;;;;;;;8.30;7.18;;;17.70;99.90;;;;;;5052076;28;20052;-75
2021/08/06 07:01:56;;;;;;;7.05;6.25;;;17.80;99.90;;;;;;5050529;28;20130;-74
2021/08/06 07:04:22;;;;;;;6.95;5.80;;;17.90;99.90;;;;;;5051812;28;20036;-73
2021/08/06 07:06:47;;;;;;;8.50;5.82;;;18.00;99.90;;;;;;5051609;28;20033;-73
2021/08/06 07:09:13;;;;;;;8.15;6.35;;;18.00;99.90;;;;;;5051396;28;20021;-75
2021/08/06 07:11:38;;;;;;;8.52;6.45;;;18.10;99.90;;;;;;5051779;28;20025;-74
2021/08/06 07:14:04;;;;;;;8.32;5.80;;;18.10;99.90;;;;;;5049709;28;20363;-74
2021/08/06 07:16:30;;;;;;;6.78;5.95;;;18.20;99.90;;;;;;5051520;28;20025;-74
2021/08/06 07:18:55;;;;;;;10.23;7.13;;;18.30;99.90;;;;;;5051098;28;20025;-73
2021/08/06 07:21:23;;;;;;;12.70;6.78;;;18.40;99.90;;;;;;5050422;28;20086;-74
2021/08/06 07:23:49;;;;;;;8.05;6.10;;;18.50;99.90;;;;;;5051694;28;20037;-74
2021/08/06 07:26:14;;;;;;;8.07;5.32;;;18.50;99.90;;;;;;5051561;28;20032;-74
2021/08/06 07:28:42;;;;;;;8.98;6.15;;;18.60;99.90;;;;;;5051209;28;20033;-74
2021/08/06 07:31:08;;;;;;;7.80;5.57;;;18.80;99.90;;;;;;5051190;28;20043;-73
2021/08/06 07:33:33;;;;;;;7.20;6.03;;;18.80;99.90;;;;;;5051200;28;20025;-74
2021/08/06 07:35:59;;;;;;;7.05;5.63;;;19.00;99.90;;;;;;5051603;28;20025;-74
2021/08/06 07:38:24;;;;;;;10.23;5.70;;;19.10;99.90;;;;;;5049885;28;20111;-73
2021/08/06 07:40:50;;;;;;;12.27;6.03;;;19.30;99.90;;;;;;5050023;28;20116;-73
2021/08/06 07:43:15;;;;;;;6.82;4.57;;;19.40;99.90;;;;;;5050994;28;20434;-73
2021/08/06 07:45:46;;;;;;;8.32;5.03;;;19.50;99.90;;;;;;5050735;28;20036;-74
2021/08/06 07:48:12;;;;;;;6.63;4.40;;;19.60;99.90;;;;;;5050634;28;20033;-74
2021/08/06 07:50:37;;;;;;;5.80;4.22;;;19.80;99.90;;;;;;5050380;28;20025;-74
2021/08/06 07:53:03;;;;;;;9.23;4.25;;;19.90;99.90;;;;;;5050552;28;20687;-72
2021/08/06 07:55:28;;;;;;;4.38;3.22;;;20.10;99.80;;;;;;5050860;28;20055;-73
2021/08/06 07:57:54;;;;;;;4.82;4.15;;;20.30;99.80;;;;;;5050743;28;20025;-72
2021/08/06 08:00:20;;;;;;;6.60;4.28;;;20.40;99.70;;;;;;5050676;28;20040;-73
2021/08/06 08:02:45;;;;;;;3.47;3.13;;;20.50;99.80;;;;;;5050052;28;20028;-73
2021/08/06 08:05:11;;;;;;;5.70;4.05;;;20.60;99.70;;;;;;5049938;28;20040;-72
2021/08/06 08:07:37;;;;;;;4.65;4.15;;;20.80;99.10;;;;;;5049548;28;20033;-72
2021/08/06 08:10:04;;;;;;;7.95;4.35;;;21.00;98.80;;;;;;5050671;28;20043;-72
2021/08/06 08:12:30;;;;;;;5.53;4.00;;;21.10;98.30;;;;;;5050419;28;20096;-72
2021/08/06 08:14:55;;;;;;;4.63;3.97;;;21.30;98.30;;;;;;5050822;28;20033;-74
2021/08/06 08:17:21;;;;;;;6.70;3.85;;;21.40;98.40;;;;;;5050690;28;20029;-74
2021/08/06 08:19:46;;;;;;;4.60;3.50;;;21.80;97.60;;;;;;5050296;28;20051;-73
2021/08/06 08:22:13;;;;;;;5.90;3.80;;;22.40;97.30;;;;;;5050076;28;20493;-73
2021/08/06 08:24:40;;;;;;;3.83;2.60;;;23.10;96.20;;;;;;5052443;28;20414;-73
2021/08/06 08:27:06;;;;;;;5.97;3.50;;;23.40;95.50;;;;;;5054902;28;20040;-74
2021/08/06 08:29:32;;;;;;;7.78;3.17;;;23.80;95.00;;;;;;5054867;28;20040;-75
2021/08/06 08:31:57;;;;;;;4.95;2.85;;;23.90;95.20;;;;;;5054448;28;20029;-73
2021/08/06 08:34:24;;;;;;;4.32;2.80;;;24.20;94.80;;;;;;5054531;28;20033;-74
2021/08/06 08:36:49;;;;;;;4.78;3.20;;;24.90;94.40;;;;;;5053400;28;20048;-74
2021/08/06 08:39:15;;;;;;;6.00;4.32;;;26.00;93.60;;;;;;5053129;28;20492;-74
2021/08/06 08:41:41;;;;;;;3.95;3.10;;;26.70;91.80;;;;;;5054926;28;20029;-73
2021/08/06 08:44:06;;;;;;;3.17;2.70;;;27.20;90.80;;;;;;5054266;28;20037;-75
2021/08/06 08:46:36;;;;;;;4.55;3.10;;;28.00;90.30;;;;;;5053354;28;20029;-74
2021/08/06 08:49:02;;;;;;;4.28;2.58;;;28.70;86.60;;;;;;5054091;28;20037;-73
2021/08/06 08:51:29;;;;;;;6.25;3.22;;;29.70;85.50;;;;;;5053933;28;20037;-73
2021/08/06 08:53:56;;;;;;;4.00;3.13;;;29.90;80.80;;;;;;5053223;28;20119;-74
2021/08/06 08:56:23;;;;;;;4.63;3.38;;;29.90;80.00;;;;;;5054207;28;20136;-74
2021/08/06 08:58:48;;;;;;;5.60;2.75;;;30.50;80.30;;;;;;5053783;28;20033;-73
2021/08/06 09:01:15;;;;;;;4.15;2.40;;;30.90;77.40;;;;;;5053858;28;20124;-73
2021/08/06 09:03:40;;;;;;;3.47;2.88;;;31.30;75.60;;;;;;5053867;28;20029;-73
2021/08/06 09:06:08;;;;;;;5.35;2.90;;;30.80;72.80;;;;;;5054450;28;20044;-72
2021/08/06 09:08:34;;;;;;;5.43;3.03;;;30.60;75.20;;;;;;5053972;28;20144;-73
2021/08/06 09:10:59;;;;;;;3.35;2.45;;;30.70;75.20;;;;;;5053669;28;20053;-73
2021/08/06 09:13:26;;;;;;;5.18;2.45;;;30.50;74.00;;;;;;5054131;28;20045;-74
2021/08/06 09:15:58;;;;;;;3.05;2.67;;;30.90;75.70;;;;;;5054094;28;20037;-74
2021/08/06 09:18:23;;;;;;;3.60;2.50;;;31.40;74.80;;;;;;5053789;28;20040;-75
2021/08/06 09:20:50;;;;;;;6.30;2.65;;;31.60;74.60;;;;;;5054240;28;20013;-73
2021/08/06 09:23:55;;;;;;;7.28;5.10;;;31.60;71.60;;;;;;5053680;28;20114;-74
2021/08/06 09:26:27;;;;;;;4.15;3.13;;;31.90;71.20;;;;;;5031252;28;20113;-73
2021/08/06 09:29:21;;;;;;;3.15;2.40;;;32.20;69.10;;;;;;5031355;28;20053;-74
2021/08/06 09:31:50;;;;;;;4.95;2.38;;;32.90;69.10;;;;;;5045733;28;20036;-74
2021/08/06 09:34:24;;;;;;;3.30;2.20;;;33.50;66.20;;;;;;5053245;28;20159;-73
2021/08/06 09:37:09;;;;;;;3.25;2.65;;;33.80;65.10;;;;;;5052671;28;20033;-74
2021/08/06 09:39:39;;;;;;;4.13;2.38;;;33.00;64.00;;;;;;5053347;28;20079;-74
2021/08/06 09:42:16;;;;;;;5.75;3.25;;;31.70;65.10;;;;;;5053529;28;20021;-73
2021/08/06 09:44:42;;;;;;;3.65;2.88;;;31.40;68.20;;;;;;5053929;28;20578;-74
2021/08/06 09:47:20;;;;;;;4.07;2.92;;;30.70;68.80;;;;;;5053016;28;20055;-75
2021/08/06 09:49:51;;;;;;;4.55;2.30;;;30.30;70.00;;;;;;5053436;28;20029;-73
2021/08/06 09:52:17;;;;;;;2.50;2.28;;;29.90;72.40;;;;;;5051584;28;20426;-74
2021/08/06 09:54:51;;;;;;;2.92;2.47;;;30.10;71.90;;;;;;5051596;28;20319;-73
2021/08/06 09:57:17;;;;;;;3.97;2.47;;;30.30;69.90;;;;;;5052822;28;20032;-73
2021/08/06 09:59:43;;;;;;;3.03;2.60;;;29.90;70.30;;;;;;5053255;28;20036;-73
2021/08/06 10:02:22;;;;;;;6.15;3.15;;;29.60;70.80;;;;;;5052790;28;20033;-73
2021/08/06 10:05:03;;;;;;;3.70;2.75;;;28.90;71.90;;;;;;5052850;28;20041;-73
2021/08/06 10:07:41;;;;;;;4.85;3.17;;;28.40;73.30;;;;;;5052783;28;20037;-75
2021/08/06 10:10:10;;;;;;;3.60;2.90;;;28.10;73.70;;;;;;5052754;28;20033;-73
2021/08/06 10:12:36;;;;;;;7.95;5.10;;;27.80;74.10;;;;;;5052421;28;20052;-72
2021/08/06 10:15:02;;;;;;;3.72;3.28;;;27.50;74.20;;;;;;5052897;28;20432;-73
2021/08/06 10:17:28;;;;;;;6.22;3.95;;;27.60;74.60;;;;;;5052602;28;20112;-73
2021/08/06 10:19:53;;;;;;;7.75;5.07;;;27.80;74.20;;;;;;5052614;28;20029;-74
2021/08/06 10:22:20;;;;;;;6.40;5.13;;;27.80;73.90;;;;;;5052424;28;20378;-74
2021/08/06 10:24:48;;;;;;;9.68;2.95;;;27.60;73.90;;;;;;5052475;28;20136;-74
2021/08/06 10:27:20;;;;;;;3.80;2.50;;;27.70;74.00;;;;;;5052727;28;20103;-74
2021/08/06 10:30:08;;;;;;;3.15;2.20;;;27.60;74.30;;;;;;5052673;28;20021;-74
2021/08/06 10:32:35;;;;;;;4.78;2.40;;;27.60;75.00;;;;;;5051176;28;20301;-75
2021/08/06 10:35:17;;;;;;;8.63;2.42;;;27.60;75.50;;;;;;5051101;28;20471;-73
2021/08/06 10:38:04;;;;;;;4.93;3.00;;;27.60;74.70;;;;;;5052187;28;20050;-73
2021/08/06 10:40:32;;;;;;;3.40;2.72;;;27.20;75.10;;;;;;5052246;28;20421;-74
2021/08/06 10:43:00;;;;;;;5.38;2.08;;;26.70;76.30;;;;;;5052166;28;20029;-72
2021/08/06 10:45:47;;;;;;;5.45;2.28;;;26.40;77.20;;;;;;5052203;28;20025;-73
2021/08/06 10:48:31;;;;;;;3.33;2.30;;;26.20;77.80;;;;;;5051163;28;20037;-73
2021/08/06 10:51:25;;;;;;;3.17;2.38;;;25.90;78.50;;;;;;5052335;28;20021;-73
2021/08/06 10:53:57;;;;;;;3.78;2.33;;;25.50;79.40;;;;;;5050787;28;20041;-73
2021/08/06 10:56:31;;;;;;;3.33;2.22;;;25.20;80.20;;;;;;5052270;28;20029;-74
2021/08/06 10:59:12;;;;;;;5.43;3.70;;;25.20;80.60;;;;;;5051808;28;20056;-73
2021/08/06 11:01:39;;;;;;;5.90;3.72;;;24.90;81.00;;;;;;5051906;28;20076;-73
2021/08/06 11:04:13;;;;;;;3.72;2.72;;;24.70;81.40;;;;;;5051479;28;20033;-73
2021/08/06 11:06:47;;;;;;;2.55;1.92;;;24.50;82.10;;;;;;5051702;28;20025;-73
2021/08/06 11:09:25;;;;;;;7.90;2.60;;;24.40;82.90;;;;;;5051424;28;20462;-73
2021/08/06 11:12:01;;;;;;;4.03;2.47;;;24.30;83.50;;;;;;5051876;28;20029;-73
2021/08/06 11:14:33;;;;;;;4.78;2.20;;;24.20;83.50;;;;;;5051457;28;20736;-73
2021/08/06 11:17:33;;;;;;;2.10;1.85;;;24.20;84.10;;;;;;5051316;28;20085;-72
2021/08/06 11:20:07;;;;;;;4.07;2.97;;;24.10;84.30;;;;;;5051736;28;20470;-72
2021/08/06 11:22:35;;;;;;;4.32;2.03;;;24.00;84.80;;;;;;5051486;28;20410;-73
2021/08/06 11:25:06;;;;;;;9.98;2.50;;;23.90;85.00;;;;;;5051445;28;20032;-73
2021/08/06 11:27:39;;;;;;;3.05;1.67;;;24.00;85.40;;;;;;5050201;28;23010;-74
2021/08/06 11:30:12;;;;;;;3.38;1.63;;;24.00;85.90;;;;;;5051767;28;20033;-73
2021/08/06 11:32:55;;;;;;;2.85;1.77;;;24.00;85.70;;;;;;5051287;28;20040;-73
2021/08/06 11:35:27;;;;;;;2.03;1.70;;;24.00;86.20;;;;;;5050077;28;20534;-72
2021/08/06 11:37:55;;;;;;;1.70;1.60;;;24.20;86.40;;;;;;5051211;28;20105;-72
2021/08/06 11:40:36;;;;;;;1.65;1.40;;;24.50;86.00;;;;;;5051007;28;20025;-73
2021/08/06 11:43:25;;;;;;;2.88;1.38;;;24.70;85.60;;;;;;5050635;28;20029;-73
2021/08/06 11:45:53;;;;;;;2.78;1.48;;;25.00;85.20;;;;;;5050592;28;20112;-73
2021/08/06 11:48:20;;;;;;;1.40;1.30;;;25.20;84.90;;;;;;5050465;28;20032;-73
2021/08/06 11:50:49;;;;;;;4.30;1.60;;;25.20;84.50;;;;;;5051168;28;20017;-73
2021/08/06 11:53:17;;;;;;;1.42;1.10;;;25.30;84.60;;;;;;5050731;28;20141;-73
2021/08/06 11:55:45;;;;;;;5.18;1.33;;;25.20;83.60;;;;;;5050411;28;20033;-73
2021/08/06 11:58:11;;;;;;;;;;;25.10;83.70;;;;;;5051018;28;20109;-73
2021/08/06 12:00:37;;;;;;;3.95;3.08;;;24.80;83.90;;;;;;5050369;28;20581;-73
2021/08/06 12:03:07;;;;;;;2.90;1.20;;;24.70;84.70;;;;;;5050856;28;20438;-73
2021/08/06 12:05:34;;;;;;;3.53;1.45;;;24.60;85.10;;;;;;5050427;28;20123;-72
2021/08/06 12:08:24;;;;;;;3.78;1.45;;;24.40;85.70;;;;;;5050373;28;20029;-74
2021/08/06 12:10:55;;;;;;;3.00;1.70;;;24.30;86.20;;;;;;5050287;28;20413;-74
2021/08/06 12:13:23;;;;;;;2.88;1.60;;;24.10;86.40;;;;;;5050442;28;20103;-72
2021/08/06 12:16:11;;;;;;;2.70;2.00;;;23.90;87.10;;;;;;5050396;28;20044;-71
2021/08/06 12:18:39;;;;;;;3.05;1.67;;;23.70;90.00;;;;;;5050435;28;20102;-74
2021/08/06 12:21:13;;;;;;;1.88;1.73;;;23.50;90.60;;;;;;5051115;28;20025;-73
2021/08/06 12:23:53;;;;;;;2.22;1.60;;;23.50;90.90;;;;;;5050741;28;20136;-72
2021/08/06 12:26:33;;;;;;;2.67;1.60;;;23.40;91.20;;;;;;5050330;28;20025;-73
2021/08/06 12:29:12;;;;;;;3.88;1.70;;;23.30;91.50;;;;;;5050607;28;20076;-73
2021/08/06 12:32:04;;;;;;;2.42;1.80;;;23.20;91.60;;;;;;5050321;28;20037;-73
2021/08/06 12:34:34;;;;;;;4.28;1.65;;;23.10;91.80;;;;;;5044829;28;20463;-72
2021/08/06 12:37:03;;;;;;;2.80;1.80;;;23.10;92.00;;;;;;5050183;28;20455;-72
2021/08/06 12:39:34;;;;;;;3.00;1.60;;;23.00;92.40;;;;;;5050261;28;20332;-73
2021/08/06 12:42:30;;;;;;;1.55;1.45;;;23.10;92.10;;;;;;5050695;28;20021;-73
2021/08/06 12:45:20;;;;;;;1.45;1.35;;;22.90;92.20;;;;;;5030980;28;20114;-72